sensor_id;sensor_type;location;lat;lon;timestamp;temperature;humidity
26053;DHT22;13826;51.186;4.450;2022-09-19T00:00:41;11.80;90.90
26053;DHT22;13826;51.186;4.450;2022-09-19T00:03:08;11.90;90.80
26053;DHT22;13826;51.186;4.450;2022-09-19T00:05:38;12.00;90.90
26053;DHT22;13826;51.186;4.450;2022-09-19T00:08:03;11.90;90.30
26053;DHT22;13826;51.186;4.450;2022-09-19T00:10:29;11.90;91.00
26053;DHT22;13826;51.186;4.450;2022-09-19T00:12:55;11.90;90.90
26053;DHT22;13826;51.186;4.450;2022-09-19T00:15:21;11.80;91.00
26053;DHT22;13826;51.186;4.450;2022-09-19T00:17:51;11.90;91.00
26053;DHT22;13826;51.186;4.450;2022-09-19T00:20:16;11.90;90.00
26053;DHT22;13826;51.186;4.450;2022-09-19T00:22:42;11.90;88.90
26053;DHT22;13826;51.186;4.450;2022-09-19T00:25:28;11.80;86.30
26053;DHT22;13826;51.186;4.450;2022-09-19T00:27:54;11.70;84.00
26053;DHT22;13826;51.186;4.450;2022-09-19T00:30:20;11.60;83.10
26053;DHT22;13826;51.186;4.450;2022-09-19T00:32:45;11.60;84.40
26053;DHT22;13826;51.186;4.450;2022-09-19T00:35:12;11.40;83.50
26053;DHT22;13826;51.186;4.450;2022-09-19T00:37:38;11.50;85.00
26053;DHT22;13826;51.186;4.450;2022-09-19T00:40:05;11.40;85.90
26053;DHT22;13826;51.186;4.450;2022-09-19T00:42:31;11.30;86.80
26053;DHT22;13826;51.186;4.450;2022-09-19T00:45:22;11.30;88.00
26053;DHT22;13826;51.186;4.450;2022-09-19T00:47:48;11.40;86.90
26053;DHT22;13826;51.186;4.450;2022-09-19T00:50:27;11.30;87.00
26053;DHT22;13826;51.186;4.450;2022-09-19T00:53:07;11.30;88.00
26053;DHT22;13826;51.186;4.450;2022-09-19T00:55:36;11.30;87.00
26053;DHT22;13826;51.186;4.450;2022-09-19T01:00:50;11.20;88.40
26053;DHT22;13826;51.186;4.450;2022-09-19T01:03:16;11.20;87.70
26053;DHT22;13826;51.186;4.450;2022-09-19T01:05:54;11.10;88.10
26053;DHT22;13826;51.186;4.450;2022-09-19T01:31:00;11.20;92.90
26053;DHT22;13826;51.186;4.450;2022-09-19T01:36:16;11.40;93.30
26053;DHT22;13826;51.186;4.450;2022-09-19T01:38:45;11.30;92.20
26053;DHT22;13826;51.186;4.450;2022-09-19T01:41:15;11.40;93.30
26053;DHT22;13826;51.186;4.450;2022-09-19T01:43:41;11.60;93.00
26053;DHT22;13826;51.186;4.450;2022-09-19T01:49:19;11.70;91.30
26053;DHT22;13826;51.186;4.450;2022-09-19T01:51:50;11.70;91.30
26053;DHT22;13826;51.186;4.450;2022-09-19T01:54:35;11.70;90.30
26053;DHT22;13826;51.186;4.450;2022-09-19T01:57:28;11.90;90.00
26053;DHT22;13826;51.186;4.450;2022-09-19T02:00:11;11.80;88.60
26053;DHT22;13826;51.186;4.450;2022-09-19T02:02:39;11.80;89.30
26053;DHT22;13826;51.186;4.450;2022-09-19T02:05:11;11.80;90.10
26053;DHT22;13826;51.186;4.450;2022-09-19T02:10:55;11.90;90.00
26053;DHT22;13826;51.186;4.450;2022-09-19T02:13:25;12.00;90.00
26053;DHT22;13826;51.186;4.450;2022-09-19T02:16:01;12.10;88.90
26053;DHT22;13826;51.186;4.450;2022-09-19T02:18:41;12.10;86.80
26053;DHT22;13826;51.186;4.450;2022-09-19T02:21:11;12.00;86.30
26053;DHT22;13826;51.186;4.450;2022-09-19T02:23:42;12.10;87.10
26053;DHT22;13826;51.186;4.450;2022-09-19T02:26:14;12.00;85.90
26053;DHT22;13826;51.186;4.450;2022-09-19T02:28:42;12.10;88.10
26053;DHT22;13826;51.186;4.450;2022-09-19T02:31:10;12.20;85.50
26053;DHT22;13826;51.186;4.450;2022-09-19T02:33:37;12.20;83.40
26053;DHT22;13826;51.186;4.450;2022-09-19T02:36:13;12.20;83.90
26053;DHT22;13826;51.186;4.450;2022-09-19T02:38:59;12.10;83.10
26053;DHT22;13826;51.186;4.450;2022-09-19T02:41:48;12.00;83.80
26053;DHT22;13826;51.186;4.450;2022-09-19T02:44:24;12.00;83.80
26053;DHT22;13826;51.186;4.450;2022-09-19T02:47:13;12.00;83.80
26053;DHT22;13826;51.186;4.450;2022-09-19T02:49:47;12.10;83.40
26053;DHT22;13826;51.186;4.450;2022-09-19T02:52:26;12.10;78.90
26053;DHT22;13826;51.186;4.450;2022-09-19T02:54:55;12.10;76.10
26053;DHT22;13826;51.186;4.450;2022-09-19T02:57:24;12.00;76.90
26053;DHT22;13826;51.186;4.450;2022-09-19T02:59:53;12.00;77.60
26053;DHT22;13826;51.186;4.450;2022-09-19T03:02:28;12.00;76.30
26053;DHT22;13826;51.186;4.450;2022-09-19T03:05:06;11.90;76.60
26053;DHT22;13826;51.186;4.450;2022-09-19T03:07:37;11.80;76.60
26053;DHT22;13826;51.186;4.450;2022-09-19T03:10:14;11.90;73.90
26053;DHT22;13826;51.186;4.450;2022-09-19T03:12:53;11.80;72.10
26053;DHT22;13826;51.186;4.450;2022-09-19T03:15:36;11.70;72.60
26053;DHT22;13826;51.186;4.450;2022-09-19T03:18:10;11.70;73.70
26053;DHT22;13826;51.186;4.450;2022-09-19T03:20:38;11.70;74.90
26053;DHT22;13826;51.186;4.450;2022-09-19T03:23:06;11.70;75.70
26053;DHT22;13826;51.186;4.450;2022-09-19T03:25:33;11.60;78.20
26053;DHT22;13826;51.186;4.450;2022-09-19T03:28:00;11.50;80.60
26053;DHT22;13826;51.186;4.450;2022-09-19T03:30:25;11.50;79.90
26053;DHT22;13826;51.186;4.450;2022-09-19T03:32:51;11.50;78.40
26053;DHT22;13826;51.186;4.450;2022-09-19T03:35:17;11.30;79.00
26053;DHT22;13826;51.186;4.450;2022-09-19T03:37:43;11.30;79.30
26053;DHT22;13826;51.186;4.450;2022-09-19T03:40:09;11.30;80.50
26053;DHT22;13826;51.186;4.450;2022-09-19T03:42:36;11.30;80.50
26053;DHT22;13826;51.186;4.450;2022-09-19T03:45:04;11.30;79.50
26053;DHT22;13826;51.186;4.450;2022-09-19T03:47:30;11.20;78.80
26053;DHT22;13826;51.186;4.450;2022-09-19T03:49:56;11.20;79.30
26053;DHT22;13826;51.186;4.450;2022-09-19T03:54:58;11.10;82.00
26053;DHT22;13826;51.186;4.450;2022-09-19T03:57:24;11.10;81.80
26053;DHT22;13826;51.186;4.450;2022-09-19T03:59:50;11.00;84.40
26053;DHT22;13826;51.186;4.450;2022-09-19T04:02:15;11.00;85.00
26053;DHT22;13826;51.186;4.450;2022-09-19T04:04:41;10.90;86.70
26053;DHT22;13826;51.186;4.450;2022-09-19T04:07:06;10.90;86.50
26053;DHT22;13826;51.186;4.450;2022-09-19T04:09:32;11.00;85.90
26053;DHT22;13826;51.186;4.450;2022-09-19T04:11:59;11.00;84.00
26053;DHT22;13826;51.186;4.450;2022-09-19T04:14:26;10.90;84.60
26053;DHT22;13826;51.186;4.450;2022-09-19T04:16:52;10.90;85.20
26053;DHT22;13826;51.186;4.450;2022-09-19T04:19:17;10.80;85.70
26053;DHT22;13826;51.186;4.450;2022-09-19T04:21:43;10.80;86.30
26053;DHT22;13826;51.186;4.450;2022-09-19T04:24:10;10.90;84.30
26053;DHT22;13826;51.186;4.450;2022-09-19T04:26:36;10.80;83.70
26053;DHT22;13826;51.186;4.450;2022-09-19T04:29:02;10.80;83.50
26053;DHT22;13826;51.186;4.450;2022-09-19T04:31:30;10.70;84.70
26053;DHT22;13826;51.186;4.450;2022-09-19T04:34:11;10.70;86.20
26053;DHT22;13826;51.186;4.450;2022-09-19T04:36:40;10.70;88.70
26053;DHT22;13826;51.186;4.450;2022-09-19T04:39:05;10.80;87.80
26053;DHT22;13826;51.186;4.450;2022-09-19T04:41:36;10.80;84.40
26053;DHT22;13826;51.186;4.450;2022-09-19T04:44:04;10.80;82.00
26053;DHT22;13826;51.186;4.450;2022-09-19T04:46:30;10.90;80.20
26053;DHT22;13826;51.186;4.450;2022-09-19T04:48:59;10.70;81.10
26053;DHT22;13826;51.186;4.450;2022-09-19T04:51:25;10.70;81.60
26053;DHT22;13826;51.186;4.450;2022-09-19T04:53:52;10.70;82.60
26053;DHT22;13826;51.186;4.450;2022-09-19T04:56:19;10.70;84.40
26053;DHT22;13826;51.186;4.450;2022-09-19T04:58:46;10.60;85.20
26053;DHT22;13826;51.186;4.450;2022-09-19T05:01:12;10.70;85.90
26053;DHT22;13826;51.186;4.450;2022-09-19T05:03:39;10.70;85.80
26053;DHT22;13826;51.186;4.450;2022-09-19T05:06:10;10.80;86.70
26053;DHT22;13826;51.186;4.450;2022-09-19T05:08:35;10.90;88.50
26053;DHT22;13826;51.186;4.450;2022-09-19T05:11:05;11.00;88.00
26053;DHT22;13826;51.186;4.450;2022-09-19T05:13:33;11.00;86.20
26053;DHT22;13826;51.186;4.450;2022-09-19T05:16:01;11.10;86.30
26053;DHT22;13826;51.186;4.450;2022-09-19T05:18:27;11.10;87.60
26053;DHT22;13826;51.186;4.450;2022-09-19T05:20:54;11.10;89.10
26053;DHT22;13826;51.186;4.450;2022-09-19T05:23:24;11.10;90.10
26053;DHT22;13826;51.186;4.450;2022-09-19T05:25:51;11.20;90.20
26053;DHT22;13826;51.186;4.450;2022-09-19T05:28:22;11.10;89.80
26053;DHT22;13826;51.186;4.450;2022-09-19T05:30:52;11.10;91.10
26053;DHT22;13826;51.186;4.450;2022-09-19T05:33:21;11.30;90.60
26053;DHT22;13826;51.186;4.450;2022-09-19T05:35:49;11.40;90.30
26053;DHT22;13826;51.186;4.450;2022-09-19T05:38:16;11.40;89.60
26053;DHT22;13826;51.186;4.450;2022-09-19T05:40:42;11.50;89.20
26053;DHT22;13826;51.186;4.450;2022-09-19T05:43:08;11.40;90.10
26053;DHT22;13826;51.186;4.450;2022-09-19T05:45:34;11.40;90.20
26053;DHT22;13826;51.186;4.450;2022-09-19T05:48:05;11.50;90.80
26053;DHT22;13826;51.186;4.450;2022-09-19T05:50:32;11.50;89.40
26053;DHT22;13826;51.186;4.450;2022-09-19T05:52:58;11.60;89.00
26053;DHT22;13826;51.186;4.450;2022-09-19T05:55:42;11.50;87.80
26053;DHT22;13826;51.186;4.450;2022-09-19T05:58:08;11.60;89.30
26053;DHT22;13826;51.186;4.450;2022-09-19T06:00:34;11.60;89.60
26053;DHT22;13826;51.186;4.450;2022-09-19T06:03:04;11.70;88.60
26053;DHT22;13826;51.186;4.450;2022-09-19T06:05:36;11.80;89.30
26053;DHT22;13826;51.186;4.450;2022-09-19T06:08:02;11.80;86.20
26053;DHT22;13826;51.186;4.450;2022-09-19T06:10:33;12.00;83.90
26053;DHT22;13826;51.186;4.450;2022-09-19T06:13:00;11.90;80.40
26053;DHT22;13826;51.186;4.450;2022-09-19T06:15:26;11.90;78.00
26053;DHT22;13826;51.186;4.450;2022-09-19T06:17:58;12.10;77.50
26053;DHT22;13826;51.186;4.450;2022-09-19T06:20:25;12.20;76.20
26053;DHT22;13826;51.186;4.450;2022-09-19T06:23:00;12.30;73.70
26053;DHT22;13826;51.186;4.450;2022-09-19T06:25:28;12.20;70.50
26053;DHT22;13826;51.186;4.450;2022-09-19T06:27:55;12.20;67.30
26053;DHT22;13826;51.186;4.450;2022-09-19T06:30:22;12.20;69.30
26053;DHT22;13826;51.186;4.450;2022-09-19T06:32:48;12.30;67.40
26053;DHT22;13826;51.186;4.450;2022-09-19T06:35:15;12.30;65.70
26053;DHT22;13826;51.186;4.450;2022-09-19T06:37:40;12.90;69.60
26053;DHT22;13826;51.186;4.450;2022-09-19T06:40:07;14.40;47.20
26053;DHT22;13826;51.186;4.450;2022-09-19T06:42:33;16.10;2.10
26053;DHT22;13826;51.186;4.450;2022-09-19T06:44:59;18.20;1.00
26053;DHT22;13826;51.186;4.450;2022-09-19T06:47:26;19.40;1.00
26053;DHT22;13826;51.186;4.450;2022-09-19T06:49:52;20.40;1.00
26053;DHT22;13826;51.186;4.450;2022-09-19T06:52:18;21.40;99.90
26053;DHT22;13826;51.186;4.450;2022-09-19T06:54:43;22.40;1.00
26053;DHT22;13826;51.186;4.450;2022-09-19T06:57:09;23.20;1.00
26053;DHT22;13826;51.186;4.450;2022-09-19T06:59:36;24.60;1.00
26053;DHT22;13826;51.186;4.450;2022-09-19T07:02:03;24.60;99.90
26053;DHT22;13826;51.186;4.450;2022-09-19T07:04:28;23.40;99.90
26053;DHT22;13826;51.186;4.450;2022-09-19T07:06:54;23.30;1.00
26053;DHT22;13826;51.186;4.450;2022-09-19T07:09:22;23.10;99.90
26053;DHT22;13826;51.186;4.450;2022-09-19T07:11:51;22.80;1.00
26053;DHT22;13826;51.186;4.450;2022-09-19T07:14:18;22.10;1.00
26053;DHT22;13826;51.186;4.450;2022-09-19T07:16:43;21.60;99.90
26053;DHT22;13826;51.186;4.450;2022-09-19T07:19:09;21.10;99.90
26053;DHT22;13826;51.186;4.450;2022-09-19T07:21:35;20.70;99.90
26053;DHT22;13826;51.186;4.450;2022-09-19T07:24:01;20.20;1.00
26053;DHT22;13826;51.186;4.450;2022-09-19T07:26:28;19.80;1.00
26053;DHT22;13826;51.186;4.450;2022-09-19T07:28:54;19.50;1.00
26053;DHT22;13826;51.186;4.450;2022-09-19T07:31:20;19.10;1.00
26053;DHT22;13826;51.186;4.450;2022-09-19T07:33:45;18.70;1.00
26053;DHT22;13826;51.186;4.450;2022-09-19T07:36:12;18.50;1.00
26053;DHT22;13826;51.186;4.450;2022-09-19T07:38:38;18.60;1.00
26053;DHT22;13826;51.186;4.450;2022-09-19T07:41:04;19.00;1.00
26053;DHT22;13826;51.186;4.450;2022-09-19T07:43:30;19.90;1.00
26053;DHT22;13826;51.186;4.450;2022-09-19T07:45:56;21.20;99.90
26053;DHT22;13826;51.186;4.450;2022-09-19T07:48:22;21.20;99.90
26053;DHT22;13826;51.186;4.450;2022-09-19T07:50:48;20.90;99.90
26053;DHT22;13826;51.186;4.450;2022-09-19T07:53:23;19.60;1.00
26053;DHT22;13826;51.186;4.450;2022-09-19T07:55:50;19.20;1.00
26053;DHT22;13826;51.186;4.450;2022-09-19T07:58:21;19.90;1.00
26053;DHT22;13826;51.186;4.450;2022-09-19T08:00:47;20.40;1.00
26053;DHT22;13826;51.186;4.450;2022-09-19T08:03:16;20.90;99.90
26053;DHT22;13826;51.186;4.450;2022-09-19T08:05:44;20.70;99.90
26053;DHT22;13826;51.186;4.450;2022-09-19T08:08:12;21.70;99.90
26053;DHT22;13826;51.186;4.450;2022-09-19T08:10:38;21.40;1.00
26053;DHT22;13826;51.186;4.450;2022-09-19T08:13:06;20.70;99.90
26053;DHT22;13826;51.186;4.450;2022-09-19T08:15:33;19.90;1.00
26053;DHT22;13826;51.186;4.450;2022-09-19T08:18:16;19.40;1.00
26053;DHT22;13826;51.186;4.450;2022-09-19T08:20:42;19.30;1.00
26053;DHT22;13826;51.186;4.450;2022-09-19T08:23:10;19.10;1.00
26053;DHT22;13826;51.186;4.450;2022-09-19T08:25:38;19.40;1.00
26053;DHT22;13826;51.186;4.450;2022-09-19T08:28:05;19.50;1.00
26053;DHT22;13826;51.186;4.450;2022-09-19T08:30:32;19.40;1.00
26053;DHT22;13826;51.186;4.450;2022-09-19T08:32:59;18.40;1.00
26053;DHT22;13826;51.186;4.450;2022-09-19T08:35:26;18.40;1.00
26053;DHT22;13826;51.186;4.450;2022-09-19T08:37:57;19.30;1.00
26053;DHT22;13826;51.186;4.450;2022-09-19T08:40:27;20.50;1.00
26053;DHT22;13826;51.186;4.450;2022-09-19T08:48:28;22.70;99.90
26053;DHT22;13826;51.186;4.450;2022-09-19T08:51:04;22.30;99.90
26053;DHT22;13826;51.186;4.450;2022-09-19T08:53:35;21.80;99.90
26053;DHT22;13826;51.186;4.450;2022-09-19T08:56:03;21.90;99.90
26053;DHT22;13826;51.186;4.450;2022-09-19T08:58:32;22.10;1.00
26053;DHT22;13826;51.186;4.450;2022-09-19T09:01:02;22.20;99.90
26053;DHT22;13826;51.186;4.450;2022-09-19T09:03:46;22.10;99.90
26053;DHT22;13826;51.186;4.450;2022-09-19T09:07:01;22.00;1.00
26053;DHT22;13826;51.186;4.450;2022-09-19T09:23:15;21.40;99.90
26053;DHT22;13826;51.186;4.450;2022-09-19T09:25:49;20.80;1.00
26053;DHT22;13826;51.186;4.450;2022-09-19T09:28:23;21.70;99.90
26053;DHT22;13826;51.186;4.450;2022-09-19T09:30:59;22.90;1.00
26053;DHT22;13826;51.186;4.450;2022-09-19T09:33:31;23.70;99.90
26053;DHT22;13826;51.186;4.450;2022-09-19T09:36:10;25.30;99.90
26053;DHT22;13826;51.186;4.450;2022-09-19T09:38:52;27.10;99.90
26053;DHT22;13826;51.186;4.450;2022-09-19T09:41:34;29.20;99.90
26053;DHT22;13826;51.186;4.450;2022-09-19T09:47:11;27.80;99.90
26053;DHT22;13826;51.186;4.450;2022-09-19T09:49:39;27.10;99.90
26053;DHT22;13826;51.186;4.450;2022-09-19T10:00:09;31.20;1.00
26053;DHT22;13826;51.186;4.450;2022-09-19T10:08:42;31.70;1.00
26053;DHT22;13826;51.186;4.450;2022-09-19T10:11:14;29.50;1.00
26053;DHT22;13826;51.186;4.450;2022-09-19T10:13:54;26.90;55.20
26053;DHT22;13826;51.186;4.450;2022-09-19T10:16:31;24.90;99.90
26053;DHT22;13826;51.186;4.450;2022-09-19T10:19:04;23.10;1.00
26053;DHT22;13826;51.186;4.450;2022-09-19T10:21:32;22.30;1.00
26053;DHT22;13826;51.186;4.450;2022-09-19T10:23:58;21.20;99.90
26053;DHT22;13826;51.186;4.450;2022-09-19T10:26:28;20.80;1.00
26053;DHT22;13826;51.186;4.450;2022-09-19T10:28:56;20.70;1.00
26053;DHT22;13826;51.186;4.450;2022-09-19T10:31:33;20.40;99.90
26053;DHT22;13826;51.186;4.450;2022-09-19T10:34:01;20.60;1.00
26053;DHT22;13826;51.186;4.450;2022-09-19T10:36:31;20.70;99.90
26053;DHT22;13826;51.186;4.450;2022-09-19T10:39:13;20.70;1.00
26053;DHT22;13826;51.186;4.450;2022-09-19T10:41:41;20.60;1.00
26053;DHT22;13826;51.186;4.450;2022-09-19T10:44:25;20.90;99.90
26053;DHT22;13826;51.186;4.450;2022-09-19T10:46:56;21.50;1.00
26053;DHT22;13826;51.186;4.450;2022-09-19T10:49:26;21.90;18.60
26053;DHT22;13826;51.186;4.450;2022-09-19T10:51:53;22.90;99.90
26053;DHT22;13826;51.186;4.450;2022-09-19T10:54:33;23.50;99.90
26053;DHT22;13826;51.186;4.450;2022-09-19T11:00:30;23.40;99.90
26053;DHT22;13826;51.186;4.450;2022-09-19T11:06:06;21.80;1.00
26053;DHT22;13826;51.186;4.450;2022-09-19T11:08:51;21.20;1.00
26053;DHT22;13826;51.186;4.450;2022-09-19T11:11:36;21.00;1.00
26053;DHT22;13826;51.186;4.450;2022-09-19T11:25:36;25.30;22.00
26053;DHT22;13826;51.186;4.450;2022-09-19T11:30:58;25.10;1.00
26053;DHT22;13826;51.186;4.450;2022-09-19T11:39:40;26.90;1.00
26053;DHT22;13826;51.186;4.450;2022-09-19T11:45:19;27.20;1.00
26053;DHT22;13826;51.186;4.450;2022-09-19T11:48:08;25.60;1.00
26053;DHT22;13826;51.186;4.450;2022-09-19T11:50:59;24.60;54.90
26053;DHT22;13826;51.186;4.450;2022-09-19T11:58:59;20.60;99.90
26053;DHT22;13826;51.186;4.450;2022-09-19T12:01:36;20.40;1.00
26053;DHT22;13826;51.186;4.450;2022-09-19T12:04:19;20.10;1.00
26053;DHT22;13826;51.186;4.450;2022-09-19T12:09:58;20.70;99.90
26053;DHT22;13826;51.186;4.450;2022-09-19T12:12:28;20.60;1.00
26053;DHT22;13826;51.186;4.450;2022-09-19T12:15:20;20.80;81.70
26053;DHT22;13826;51.186;4.450;2022-09-19T12:18:39;20.90;99.90
26053;DHT22;13826;51.186;4.450;2022-09-19T12:20:45;20.70;99.90
26053;DHT22;13826;51.186;4.450;2022-09-19T12:26:12;20.80;99.90
26053;DHT22;13826;51.186;4.450;2022-09-19T12:29:20;21.00;99.90
26053;DHT22;13826;51.186;4.450;2022-09-19T12:31:52;21.20;99.90
26053;DHT22;13826;51.186;4.450;2022-09-19T12:35:00;20.80;1.00
26053;DHT22;13826;51.186;4.450;2022-09-19T12:37:39;20.80;99.90
26053;DHT22;13826;51.186;4.450;2022-09-19T12:40:28;20.30;1.00
26053;DHT22;13826;51.186;4.450;2022-09-19T12:49:01;19.70;99.90
26053;DHT22;13826;51.186;4.450;2022-09-19T12:54:27;19.20;12.10
26053;DHT22;13826;51.186;4.450;2022-09-19T12:57:15;19.10;25.00
26053;DHT22;13826;51.186;4.450;2022-09-19T12:59:45;18.80;1.00
26053;DHT22;13826;51.186;4.450;2022-09-19T13:07:58;18.90;49.00
26053;DHT22;13826;51.186;4.450;2022-09-19T13:10:48;18.90;99.90
26053;DHT22;13826;51.186;4.450;2022-09-19T13:13:23;19.20;90.10
26053;DHT22;13826;51.186;4.450;2022-09-19T13:15:57;19.30;99.90
26053;DHT22;13826;51.186;4.450;2022-09-19T13:18:26;19.30;99.90
26053;DHT22;13826;51.186;4.450;2022-09-19T13:21:31;19.40;1.00
26053;DHT22;13826;51.186;4.450;2022-09-19T13:27:08;19.30;99.90
26053;DHT22;13826;51.186;4.450;2022-09-19T13:32:09;19.20;1.00
26053;DHT22;13826;51.186;4.450;2022-09-19T13:35:22;19.10;99.90
26053;DHT22;13826;51.186;4.450;2022-09-19T13:37:58;18.70;1.00
26053;DHT22;13826;51.186;4.450;2022-09-19T13:40:41;18.70;99.90
26053;DHT22;13826;51.186;4.450;2022-09-19T13:46:09;18.90;1.00
26053;DHT22;13826;51.186;4.450;2022-09-19T13:48:43;18.80;26.10
26053;DHT22;13826;51.186;4.450;2022-09-19T13:51:31;18.80;1.00
26053;DHT22;13826;51.186;4.450;2022-09-19T13:59:39;18.70;1.00
26053;DHT22;13826;51.186;4.450;2022-09-19T14:04:57;18.00;1.00
26053;DHT22;13826;51.186;4.450;2022-09-19T14:10:29;18.10;99.90
26053;DHT22;13826;51.186;4.450;2022-09-19T14:13:19;18.20;1.00
26053;DHT22;13826;51.186;4.450;2022-09-19T14:21:05;18.50;99.90
26053;DHT22;13826;51.186;4.450;2022-09-19T14:23:36;18.30;40.80
26053;DHT22;13826;51.186;4.450;2022-09-19T14:26:29;18.50;99.90
26053;DHT22;13826;51.186;4.450;2022-09-19T14:43:14;18.40;1.00
26053;DHT22;13826;51.186;4.450;2022-09-19T14:46:12;18.50;1.00
26053;DHT22;13826;51.186;4.450;2022-09-19T14:57:13;18.40;99.90
26053;DHT22;13826;51.186;4.450;2022-09-19T14:59:39;18.50;1.00
26053;DHT22;13826;51.186;4.450;2022-09-19T15:02:29;18.70;99.90
26053;DHT22;13826;51.186;4.450;2022-09-19T15:07:39;18.60;45.50
26053;DHT22;13826;51.186;4.450;2022-09-19T15:10:32;18.60;91.40
26053;DHT22;13826;51.186;4.450;2022-09-19T15:15:43;18.70;20.80
26053;DHT22;13826;51.186;4.450;2022-09-19T15:18:43;18.50;99.90
26053;DHT22;13826;51.186;4.450;2022-09-19T15:21:15;18.30;99.90
26053;DHT22;13826;51.186;4.450;2022-09-19T15:23:44;18.10;99.90
26053;DHT22;13826;51.186;4.450;2022-09-19T15:26:29;18.10;1.00
26053;DHT22;13826;51.186;4.450;2022-09-19T15:29:44;18.20;99.90
26053;DHT22;13826;51.186;4.450;2022-09-19T15:31:46;18.10;99.90
26053;DHT22;13826;51.186;4.450;2022-09-19T15:34:17;18.20;99.90
26053;DHT22;13826;51.186;4.450;2022-09-19T15:36:44;18.20;1.00
26053;DHT22;13826;51.186;4.450;2022-09-19T15:39:12;18.30;1.00
26053;DHT22;13826;51.186;4.450;2022-09-19T15:41:39;18.20;1.00
26053;DHT22;13826;51.186;4.450;2022-09-19T15:44:06;18.20;36.80
26053;DHT22;13826;51.186;4.450;2022-09-19T15:46:47;18.40;1.00
26053;DHT22;13826;51.186;4.450;2022-09-19T15:49:28;18.30;99.90
26053;DHT22;13826;51.186;4.450;2022-09-19T15:52:00;18.10;99.90
26053;DHT22;13826;51.186;4.450;2022-09-19T15:54:28;17.80;99.90
26053;DHT22;13826;51.186;4.450;2022-09-19T15:57:12;17.70;99.90
26053;DHT22;13826;51.186;4.450;2022-09-19T15:59:43;17.60;1.00
26053;DHT22;13826;51.186;4.450;2022-09-19T16:02:17;17.60;1.00
26053;DHT22;13826;51.186;4.450;2022-09-19T16:04:44;17.50;1.00
26053;DHT22;13826;51.186;4.450;2022-09-19T16:07:26;17.50;1.00
26053;DHT22;13826;51.186;4.450;2022-09-19T16:12:42;17.40;1.00
26053;DHT22;13826;51.186;4.450;2022-09-19T16:23:03;17.50;1.00
26053;DHT22;13826;51.186;4.450;2022-09-19T16:25:55;17.40;1.00
26053;DHT22;13826;51.186;4.450;2022-09-19T16:28:24;17.30;1.00
26053;DHT22;13826;51.186;4.450;2022-09-19T16:30:54;17.30;1.00
26053;DHT22;13826;51.186;4.450;2022-09-19T16:33:20;17.10;1.00
26053;DHT22;13826;51.186;4.450;2022-09-19T16:35:52;17.00;1.00
26053;DHT22;13826;51.186;4.450;2022-09-19T16:38:24;16.80;1.00
26053;DHT22;13826;51.186;4.450;2022-09-19T16:40:58;16.60;1.00
26053;DHT22;13826;51.186;4.450;2022-09-19T16:44:01;16.70;1.00
26053;DHT22;13826;51.186;4.450;2022-09-19T16:46:27;16.70;1.00
26053;DHT22;13826;51.186;4.450;2022-09-19T16:48:52;16.90;1.00
26053;DHT22;13826;51.186;4.450;2022-09-19T16:51:18;16.80;1.00
26053;DHT22;13826;51.186;4.450;2022-09-19T16:53:46;16.80;1.00
26053;DHT22;13826;51.186;4.450;2022-09-19T16:56:16;16.70;1.00
26053;DHT22;13826;51.186;4.450;2022-09-19T16:58:45;16.60;1.00
26053;DHT22;13826;51.186;4.450;2022-09-19T17:01:11;16.50;1.00
26053;DHT22;13826;51.186;4.450;2022-09-19T17:03:37;16.50;1.00
26053;DHT22;13826;51.186;4.450;2022-09-19T17:06:03;16.50;1.00
26053;DHT22;13826;51.186;4.450;2022-09-19T17:08:30;16.50;1.00
26053;DHT22;13826;51.186;4.450;2022-09-19T17:10:56;16.60;1.00
26053;DHT22;13826;51.186;4.450;2022-09-19T17:13:23;16.70;1.00
26053;DHT22;13826;51.186;4.450;2022-09-19T17:18:15;16.70;1.00
26053;DHT22;13826;51.186;4.450;2022-09-19T17:20:42;16.70;1.00
26053;DHT22;13826;51.186;4.450;2022-09-19T17:23:15;16.60;1.00
26053;DHT22;13826;51.186;4.450;2022-09-19T17:25:52;16.60;1.00
26053;DHT22;13826;51.186;4.450;2022-09-19T17:28:21;16.60;1.00
26053;DHT22;13826;51.186;4.450;2022-09-19T17:30:48;16.50;1.00
26053;DHT22;13826;51.186;4.450;2022-09-19T17:33:18;16.50;1.00
26053;DHT22;13826;51.186;4.450;2022-09-19T17:35:44;16.40;1.00
26053;DHT22;13826;51.186;4.450;2022-09-19T17:38:10;16.40;1.00
26053;DHT22;13826;51.186;4.450;2022-09-19T17:40:38;16.30;1.00
26053;DHT22;13826;51.186;4.450;2022-09-19T17:43:05;16.40;1.00
26053;DHT22;13826;51.186;4.450;2022-09-19T17:45:32;16.40;1.00
26053;DHT22;13826;51.186;4.450;2022-09-19T17:47:59;16.40;1.00
26053;DHT22;13826;51.186;4.450;2022-09-19T17:50:29;16.50;1.00
26053;DHT22;13826;51.186;4.450;2022-09-19T17:52:55;16.60;1.00
26053;DHT22;13826;51.186;4.450;2022-09-19T17:55:22;16.50;1.00
26053;DHT22;13826;51.186;4.450;2022-09-19T17:57:49;16.30;1.00
26053;DHT22;13826;51.186;4.450;2022-09-19T18:00:15;15.90;1.00
26053;DHT22;13826;51.186;4.450;2022-09-19T18:02:42;15.90;1.00
26053;DHT22;13826;51.186;4.450;2022-09-19T18:05:26;15.80;1.00
26053;DHT22;13826;51.186;4.450;2022-09-19T18:07:52;15.80;1.00
26053;DHT22;13826;51.186;4.450;2022-09-19T18:10:22;15.70;1.00
26053;DHT22;13826;51.186;4.450;2022-09-19T18:12:50;15.80;1.00
26053;DHT22;13826;51.186;4.450;2022-09-19T18:15:17;15.80;1.00
26053;DHT22;13826;51.186;4.450;2022-09-19T18:17:43;15.60;1.00
26053;DHT22;13826;51.186;4.450;2022-09-19T18:20:12;15.60;1.00
26053;DHT22;13826;51.186;4.450;2022-09-19T18:22:39;15.50;1.00
26053;DHT22;13826;51.186;4.450;2022-09-19T18:25:05;15.50;3.00
26053;DHT22;13826;51.186;4.450;2022-09-19T18:27:33;15.50;9.60
26053;DHT22;13826;51.186;4.450;2022-09-19T18:29:59;15.30;14.00
26053;DHT22;13826;51.186;4.450;2022-09-19T18:32:25;15.40;12.30
26053;DHT22;13826;51.186;4.450;2022-09-19T18:34:51;15.30;14.30
26053;DHT22;13826;51.186;4.450;2022-09-19T18:37:17;15.20;23.30
26053;DHT22;13826;51.186;4.450;2022-09-19T18:39:42;15.20;20.40
26053;DHT22;13826;51.186;4.450;2022-09-19T18:42:08;15.20;18.90
26053;DHT22;13826;51.186;4.450;2022-09-19T18:44:34;15.10;23.30
26053;DHT22;13826;51.186;4.450;2022-09-19T18:46:59;15.00;30.00
26053;DHT22;13826;51.186;4.450;2022-09-19T18:49:25;15.10;33.20
26053;DHT22;13826;51.186;4.450;2022-09-19T18:51:52;15.20;31.00
26053;DHT22;13826;51.186;4.450;2022-09-19T18:54:18;15.10;31.30
26053;DHT22;13826;51.186;4.450;2022-09-19T18:56:45;14.90;41.70
26053;DHT22;13826;51.186;4.450;2022-09-19T18:59:10;14.80;45.50
26053;DHT22;13826;51.186;4.450;2022-09-19T19:01:39;14.80;47.50
26053;DHT22;13826;51.186;4.450;2022-09-19T19:04:05;14.80;48.10
26053;DHT22;13826;51.186;4.450;2022-09-19T19:06:31;14.80;49.60
26053;DHT22;13826;51.186;4.450;2022-09-19T19:08:58;15.00;48.00
26053;DHT22;13826;51.186;4.450;2022-09-19T19:11:29;15.10;48.90
26053;DHT22;13826;51.186;4.450;2022-09-19T19:13:57;15.10;53.00
26053;DHT22;13826;51.186;4.450;2022-09-19T19:16:24;15.10;46.00